sensor_id;sensor_type;location;lat;lon;timestamp;temperature;humidity
23685;DHT22;12020;51.384;6.908;2023-04-25T00:00:06;8.10;99.90
23685;DHT22;12020;51.384;6.908;2023-04-25T00:02:33;8.10;99.90
23685;DHT22;12020;51.384;6.908;2023-04-25T00:05:01;8.10;99.90
23685;DHT22;12020;51.384;6.908;2023-04-25T00:07:28;8.00;99.90
23685;DHT22;12020;51.384;6.908;2023-04-25T00:09:53;8.10;99.90
23685;DHT22;12020;51.384;6.908;2023-04-25T00:12:19;8.10;99.90
23685;DHT22;12020;51.384;6.908;2023-04-25T00:14:47;8.10;99.90
23685;DHT22;12020;51.384;6.908;2023-04-25T00:17:15;8.10;99.90
23685;DHT22;12020;51.384;6.908;2023-04-25T00:19:42;8.10;99.90
23685;DHT22;12020;51.384;6.908;2023-04-25T00:22:10;8.10;99.90
23685;DHT22;12020;51.384;6.908;2023-04-25T00:24:38;8.10;99.90
23685;DHT22;12020;51.384;6.908;2023-04-25T00:27:05;8.10;99.90
23685;DHT22;12020;51.384;6.908;2023-04-25T00:29:35;8.10;99.90
23685;DHT22;12020;51.384;6.908;2023-04-25T00:32:01;8.10;99.90
23685;DHT22;12020;51.384;6.908;2023-04-25T00:34:27;8.10;99.90
23685;DHT22;12020;51.384;6.908;2023-04-25T00:36:53;8.20;99.90
23685;DHT22;12020;51.384;6.908;2023-04-25T00:39:18;8.20;99.90
23685;DHT22;12020;51.384;6.908;2023-04-25T00:41:45;8.20;99.90
23685;DHT22;12020;51.384;6.908;2023-04-25T00:44:11;8.20;99.90
23685;DHT22;12020;51.384;6.908;2023-04-25T00:46:38;8.10;99.90
23685;DHT22;12020;51.384;6.908;2023-04-25T00:49:05;8.20;99.90
23685;DHT22;12020;51.384;6.908;2023-04-25T00:51:30;8.20;99.90
23685;DHT22;12020;51.384;6.908;2023-04-25T00:53:57;8.30;99.90
23685;DHT22;12020;51.384;6.908;2023-04-25T00:56:23;8.20;99.90
23685;DHT22;12020;51.384;6.908;2023-04-25T00:58:49;8.20;99.90
23685;DHT22;12020;51.384;6.908;2023-04-25T01:01:18;8.20;99.90
23685;DHT22;12020;51.384;6.908;2023-04-25T01:03:46;8.10;99.90
23685;DHT22;12020;51.384;6.908;2023-04-25T01:06:12;8.10;99.90
23685;DHT22;12020;51.384;6.908;2023-04-25T01:08:39;8.10;99.90
23685;DHT22;12020;51.384;6.908;2023-04-25T01:11:06;8.10;99.90
23685;DHT22;12020;51.384;6.908;2023-04-25T01:13:32;8.10;99.90
23685;DHT22;12020;51.384;6.908;2023-04-25T01:16:00;8.10;99.90
23685;DHT22;12020;51.384;6.908;2023-04-25T01:18:27;8.10;99.90
23685;DHT22;12020;51.384;6.908;2023-04-25T01:20:53;8.00;99.90
23685;DHT22;12020;51.384;6.908;2023-04-25T01:23:20;8.00;99.90
23685;DHT22;12020;51.384;6.908;2023-04-25T01:25:46;8.10;99.90
23685;DHT22;12020;51.384;6.908;2023-04-25T01:28:13;8.00;99.90
23685;DHT22;12020;51.384;6.908;2023-04-25T01:30:40;8.00;99.90
23685;DHT22;12020;51.384;6.908;2023-04-25T01:33:07;8.00;99.90
23685;DHT22;12020;51.384;6.908;2023-04-25T01:35:34;8.00;99.90
23685;DHT22;12020;51.384;6.908;2023-04-25T01:38:02;8.00;99.90
23685;DHT22;12020;51.384;6.908;2023-04-25T01:40:28;8.00;99.90
23685;DHT22;12020;51.384;6.908;2023-04-25T01:42:54;8.00;99.90
23685;DHT22;12020;51.384;6.908;2023-04-25T01:45:20;8.00;99.90
23685;DHT22;12020;51.384;6.908;2023-04-25T01:47:47;7.90;99.90
23685;DHT22;12020;51.384;6.908;2023-04-25T01:50:16;7.90;99.90
23685;DHT22;12020;51.384;6.908;2023-04-25T01:52:43;7.80;99.90
23685;DHT22;12020;51.384;6.908;2023-04-25T01:55:09;7.80;99.90
23685;DHT22;12020;51.384;6.908;2023-04-25T01:57:35;7.80;99.90
23685;DHT22;12020;51.384;6.908;2023-04-25T02:00:04;7.80;99.90
23685;DHT22;12020;51.384;6.908;2023-04-25T02:02:30;7.80;99.90
23685;DHT22;12020;51.384;6.908;2023-04-25T02:04:56;7.90;99.90
23685;DHT22;12020;51.384;6.908;2023-04-25T02:07:23;7.80;99.90
23685;DHT22;12020;51.384;6.908;2023-04-25T02:09:49;7.90;99.90
23685;DHT22;12020;51.384;6.908;2023-04-25T02:12:14;7.90;99.90
23685;DHT22;12020;51.384;6.908;2023-04-25T02:14:40;7.80;99.90
23685;DHT22;12020;51.384;6.908;2023-04-25T02:17:06;7.90;99.90
23685;DHT22;12020;51.384;6.908;2023-04-25T02:19:32;7.90;99.90
23685;DHT22;12020;51.384;6.908;2023-04-25T02:21:58;7.90;99.90
23685;DHT22;12020;51.384;6.908;2023-04-25T02:24:24;7.90;99.90
23685;DHT22;12020;51.384;6.908;2023-04-25T02:26:50;7.90;99.90
23685;DHT22;12020;51.384;6.908;2023-04-25T02:29:16;7.90;99.90
23685;DHT22;12020;51.384;6.908;2023-04-25T02:31:42;7.90;99.90
23685;DHT22;12020;51.384;6.908;2023-04-25T02:34:08;8.00;99.90
23685;DHT22;12020;51.384;6.908;2023-04-25T02:36:34;8.00;99.90
23685;DHT22;12020;51.384;6.908;2023-04-25T02:39:01;8.00;99.90
23685;DHT22;12020;51.384;6.908;2023-04-25T02:41:28;8.00;99.90
23685;DHT22;12020;51.384;6.908;2023-04-25T02:43:54;7.90;99.90
23685;DHT22;12020;51.384;6.908;2023-04-25T02:46:20;7.90;99.90
23685;DHT22;12020;51.384;6.908;2023-04-25T02:48:46;7.90;99.90
23685;DHT22;12020;51.384;6.908;2023-04-25T02:51:12;7.80;99.90
23685;DHT22;12020;51.384;6.908;2023-04-25T02:53:38;7.80;99.90
23685;DHT22;12020;51.384;6.908;2023-04-25T02:56:05;7.80;99.90
23685;DHT22;12020;51.384;6.908;2023-04-25T02:58:32;7.80;99.90
23685;DHT22;12020;51.384;6.908;2023-04-25T03:00:57;7.90;99.90
23685;DHT22;12020;51.384;6.908;2023-04-25T03:03:23;7.90;99.90
23685;DHT22;12020;51.384;6.908;2023-04-25T03:05:50;7.80;99.90
23685;DHT22;12020;51.384;6.908;2023-04-25T03:08:17;7.80;99.90
23685;DHT22;12020;51.384;6.908;2023-04-25T03:10:44;7.80;99.90
23685;DHT22;12020;51.384;6.908;2023-04-25T03:13:09;7.80;99.90
23685;DHT22;12020;51.384;6.908;2023-04-25T03:15:36;7.80;99.90
23685;DHT22;12020;51.384;6.908;2023-04-25T03:18:02;7.80;99.90
23685;DHT22;12020;51.384;6.908;2023-04-25T03:20:29;7.80;99.90
23685;DHT22;12020;51.384;6.908;2023-04-25T03:22:56;7.70;99.90
23685;DHT22;12020;51.384;6.908;2023-04-25T03:25:22;7.70;99.90
23685;DHT22;12020;51.384;6.908;2023-04-25T03:27:49;7.70;99.90
23685;DHT22;12020;51.384;6.908;2023-04-25T03:30:15;7.60;99.90
23685;DHT22;12020;51.384;6.908;2023-04-25T03:32:40;7.60;99.90
23685;DHT22;12020;51.384;6.908;2023-04-25T03:35:07;7.60;99.90
23685;DHT22;12020;51.384;6.908;2023-04-25T03:37:33;7.60;99.90
23685;DHT22;12020;51.384;6.908;2023-04-25T03:40:00;7.50;99.90
23685;DHT22;12020;51.384;6.908;2023-04-25T03:42:26;7.50;99.90
23685;DHT22;12020;51.384;6.908;2023-04-25T03:44:52;7.40;99.90
23685;DHT22;12020;51.384;6.908;2023-04-25T03:47:19;7.40;99.90
23685;DHT22;12020;51.384;6.908;2023-04-25T03:49:44;7.30;99.90
23685;DHT22;12020;51.384;6.908;2023-04-25T03:52:11;7.30;99.90
23685;DHT22;12020;51.384;6.908;2023-04-25T03:54:38;7.30;99.90
23685;DHT22;12020;51.384;6.908;2023-04-25T03:57:05;7.30;99.90
23685;DHT22;12020;51.384;6.908;2023-04-25T03:59:31;7.40;99.90
23685;DHT22;12020;51.384;6.908;2023-04-25T04:01:58;7.40;99.90
23685;DHT22;12020;51.384;6.908;2023-04-25T04:04:23;7.30;99.90
23685;DHT22;12020;51.384;6.908;2023-04-25T04:06:49;7.30;99.90
23685;DHT22;12020;51.384;6.908;2023-04-25T04:09:16;7.30;99.90
23685;DHT22;12020;51.384;6.908;2023-04-25T04:11:42;7.40;99.90
23685;DHT22;12020;51.384;6.908;2023-04-25T04:14:07;7.40;99.90
23685;DHT22;12020;51.384;6.908;2023-04-25T04:16:35;7.40;99.90
23685;DHT22;12020;51.384;6.908;2023-04-25T04:19:02;7.40;99.90
23685;DHT22;12020;51.384;6.908;2023-04-25T04:21:28;7.40;99.90
23685;DHT22;12020;51.384;6.908;2023-04-25T04:23:54;7.40;99.90
23685;DHT22;12020;51.384;6.908;2023-04-25T04:26:21;7.50;99.90
23685;DHT22;12020;51.384;6.908;2023-04-25T04:28:50;7.50;99.90
23685;DHT22;12020;51.384;6.908;2023-04-25T04:31:18;7.50;99.90
23685;DHT22;12020;51.384;6.908;2023-04-25T04:33:45;7.40;99.90
23685;DHT22;12020;51.384;6.908;2023-04-25T04:36:11;7.40;99.90
23685;DHT22;12020;51.384;6.908;2023-04-25T04:38:38;7.40;99.90
23685;DHT22;12020;51.384;6.908;2023-04-25T04:41:04;7.30;99.90
23685;DHT22;12020;51.384;6.908;2023-04-25T04:43:29;7.30;99.90
23685;DHT22;12020;51.384;6.908;2023-04-25T04:45:56;7.20;99.90
23685;DHT22;12020;51.384;6.908;2023-04-25T04:48:22;7.20;99.90
23685;DHT22;12020;51.384;6.908;2023-04-25T04:50:48;7.20;99.90
23685;DHT22;12020;51.384;6.908;2023-04-25T04:53:14;7.20;99.90
23685;DHT22;12020;51.384;6.908;2023-04-25T04:55:41;7.20;99.90
23685;DHT22;12020;51.384;6.908;2023-04-25T04:58:08;7.20;99.90
23685;DHT22;12020;51.384;6.908;2023-04-25T05:00:34;7.20;99.90
23685;DHT22;12020;51.384;6.908;2023-04-25T05:03:00;7.20;99.90
23685;DHT22;12020;51.384;6.908;2023-04-25T05:05:26;7.20;99.90
23685;DHT22;12020;51.384;6.908;2023-04-25T05:07:52;7.20;99.90
23685;DHT22;12020;51.384;6.908;2023-04-25T05:10:19;7.20;99.90
23685;DHT22;12020;51.384;6.908;2023-04-25T05:12:45;7.10;99.90
23685;DHT22;12020;51.384;6.908;2023-04-25T05:15:11;7.10;99.90
23685;DHT22;12020;51.384;6.908;2023-04-25T05:17:37;7.10;99.90
23685;DHT22;12020;51.384;6.908;2023-04-25T05:20:06;7.10;99.90
23685;DHT22;12020;51.384;6.908;2023-04-25T05:22:32;7.10;99.90
23685;DHT22;12020;51.384;6.908;2023-04-25T05:24:58;7.10;99.90
23685;DHT22;12020;51.384;6.908;2023-04-25T05:27:24;7.10;99.90
23685;DHT22;12020;51.384;6.908;2023-04-25T05:29:50;7.20;99.90
23685;DHT22;12020;51.384;6.908;2023-04-25T05:32:17;7.20;99.90
23685;DHT22;12020;51.384;6.908;2023-04-25T05:34:51;7.30;99.90
23685;DHT22;12020;51.384;6.908;2023-04-25T05:37:17;7.30;99.90
23685;DHT22;12020;51.384;6.908;2023-04-25T05:39:43;7.30;99.90
23685;DHT22;12020;51.384;6.908;2023-04-25T05:42:09;7.30;99.90
23685;DHT22;12020;51.384;6.908;2023-04-25T05:44:35;7.30;99.90
23685;DHT22;12020;51.384;6.908;2023-04-25T05:47:01;7.40;99.90
23685;DHT22;12020;51.384;6.908;2023-04-25T05:49:27;7.40;99.90
23685;DHT22;12020;51.384;6.908;2023-04-25T05:51:53;7.40;99.90
23685;DHT22;12020;51.384;6.908;2023-04-25T05:54:19;7.40;99.90
23685;DHT22;12020;51.384;6.908;2023-04-25T05:56:45;7.40;99.90
23685;DHT22;12020;51.384;6.908;2023-04-25T05:59:11;7.40;99.90
23685;DHT22;12020;51.384;6.908;2023-04-25T06:01:38;7.40;99.90
23685;DHT22;12020;51.384;6.908;2023-04-25T06:04:03;7.40;99.90
23685;DHT22;12020;51.384;6.908;2023-04-25T06:06:29;7.50;99.90
23685;DHT22;12020;51.384;6.908;2023-04-25T06:08:56;7.50;99.90
23685;DHT22;12020;51.384;6.908;2023-04-25T06:11:22;7.50;99.90
23685;DHT22;12020;51.384;6.908;2023-04-25T06:13:47;7.50;99.90
23685;DHT22;12020;51.384;6.908;2023-04-25T06:16:13;7.50;99.90
23685;DHT22;12020;51.384;6.908;2023-04-25T06:18:39;7.50;99.90
23685;DHT22;12020;51.384;6.908;2023-04-25T06:21:04;7.60;99.90
23685;DHT22;12020;51.384;6.908;2023-04-25T06:23:30;7.60;99.90
23685;DHT22;12020;51.384;6.908;2023-04-25T06:25:56;7.60;99.90
23685;DHT22;12020;51.384;6.908;2023-04-25T06:28:22;7.60;99.90
23685;DHT22;12020;51.384;6.908;2023-04-25T06:30:49;7.70;99.90
23685;DHT22;12020;51.384;6.908;2023-04-25T06:33:15;7.70;99.90
23685;DHT22;12020;51.384;6.908;2023-04-25T06:35:41;7.70;99.90
23685;DHT22;12020;51.384;6.908;2023-04-25T06:38:07;7.80;99.90
23685;DHT22;12020;51.384;6.908;2023-04-25T06:40:34;7.80;99.90
23685;DHT22;12020;51.384;6.908;2023-04-25T06:43:00;7.80;99.90
23685;DHT22;12020;51.384;6.908;2023-04-25T06:45:26;7.70;99.90
23685;DHT22;12020;51.384;6.908;2023-04-25T06:47:52;7.70;99.90
23685;DHT22;12020;51.384;6.908;2023-04-25T06:50:18;7.70;99.90
23685;DHT22;12020;51.384;6.908;2023-04-25T06:52:44;7.70;99.90
23685;DHT22;12020;51.384;6.908;2023-04-25T06:55:10;7.80;99.90
23685;DHT22;12020;51.384;6.908;2023-04-25T06:57:36;7.80;99.90
23685;DHT22;12020;51.384;6.908;2023-04-25T07:00:03;7.80;99.90
23685;DHT22;12020;51.384;6.908;2023-04-25T07:02:31;7.80;99.90
23685;DHT22;12020;51.384;6.908;2023-04-25T07:04:56;7.80;99.90
23685;DHT22;12020;51.384;6.908;2023-04-25T07:07:25;7.80;99.90
23685;DHT22;12020;51.384;6.908;2023-04-25T07:09:52;7.80;99.90
23685;DHT22;12020;51.384;6.908;2023-04-25T07:12:17;7.80;99.90
23685;DHT22;12020;51.384;6.908;2023-04-25T07:14:44;7.90;99.90
23685;DHT22;12020;51.384;6.908;2023-04-25T07:17:10;7.90;99.90
23685;DHT22;12020;51.384;6.908;2023-04-25T07:19:36;7.90;99.90
23685;DHT22;12020;51.384;6.908;2023-04-25T07:22:03;7.80;99.90
23685;DHT22;12020;51.384;6.908;2023-04-25T07:24:29;7.80;99.90
23685;DHT22;12020;51.384;6.908;2023-04-25T07:26:56;7.90;99.90
23685;DHT22;12020;51.384;6.908;2023-04-25T07:29:22;7.90;99.90
23685;DHT22;12020;51.384;6.908;2023-04-25T07:31:48;8.00;99.90
23685;DHT22;12020;51.384;6.908;2023-04-25T07:34:14;8.00;99.90
23685;DHT22;12020;51.384;6.908;2023-04-25T07:36:41;8.00;99.90
23685;DHT22;12020;51.384;6.908;2023-04-25T07:39:07;8.00;99.90
23685;DHT22;12020;51.384;6.908;2023-04-25T07:41:34;8.00;99.90
23685;DHT22;12020;51.384;6.908;2023-04-25T07:44:01;8.00;99.90
23685;DHT22;12020;51.384;6.908;2023-04-25T07:46:27;8.00;99.90
23685;DHT22;12020;51.384;6.908;2023-04-25T07:48:53;8.00;99.90
23685;DHT22;12020;51.384;6.908;2023-04-25T07:51:19;8.10;99.90
23685;DHT22;12020;51.384;6.908;2023-04-25T07:53:46;8.30;99.90
23685;DHT22;12020;51.384;6.908;2023-04-25T07:56:11;8.40;99.90
23685;DHT22;12020;51.384;6.908;2023-04-25T07:58:38;8.60;99.90
23685;DHT22;12020;51.384;6.908;2023-04-25T08:01:03;8.80;99.90
23685;DHT22;12020;51.384;6.908;2023-04-25T08:03:30;9.00;99.90
23685;DHT22;12020;51.384;6.908;2023-04-25T08:05:57;9.20;99.90
23685;DHT22;12020;51.384;6.908;2023-04-25T08:08:23;9.30;99.90
23685;DHT22;12020;51.384;6.908;2023-04-25T08:10:48;9.30;99.90
23685;DHT22;12020;51.384;6.908;2023-04-25T08:13:15;9.40;99.90
23685;DHT22;12020;51.384;6.908;2023-04-25T08:15:40;9.60;99.90
23685;DHT22;12020;51.384;6.908;2023-04-25T08:18:06;9.70;99.90
23685;DHT22;12020;51.384;6.908;2023-04-25T08:20:33;9.90;99.90
23685;DHT22;12020;51.384;6.908;2023-04-25T08:23:00;10.00;99.90
23685;DHT22;12020;51.384;6.908;2023-04-25T08:25:26;9.90;99.90
23685;DHT22;12020;51.384;6.908;2023-04-25T08:27:54;9.80;99.90
23685;DHT22;12020;51.384;6.908;2023-04-25T08:30:22;9.80;99.90
23685;DHT22;12020;51.384;6.908;2023-04-25T08:32:48;9.80;99.90
23685;DHT22;12020;51.384;6.908;2023-04-25T08:35:16;9.90;99.90
23685;DHT22;12020;51.384;6.908;2023-04-25T08:37:42;10.10;99.90
23685;DHT22;12020;51.384;6.908;2023-04-25T08:40:12;10.40;99.90
23685;DHT22;12020;51.384;6.908;2023-04-25T08:42:42;10.80;99.90
23685;DHT22;12020;51.384;6.908;2023-04-25T08:45:09;11.10;99.90
23685;DHT22;12020;51.384;6.908;2023-04-25T08:47:38;11.30;99.90
23685;DHT22;12020;51.384;6.908;2023-04-25T08:50:05;11.40;99.90
23685;DHT22;12020;51.384;6.908;2023-04-25T08:52:44;11.50;99.90
23685;DHT22;12020;51.384;6.908;2023-04-25T08:55:14;11.50;99.90
23685;DHT22;12020;51.384;6.908;2023-04-25T08:57:42;11.60;99.90
23685;DHT22;12020;51.384;6.908;2023-04-25T09:00:09;11.60;99.90
23685;DHT22;12020;51.384;6.908;2023-04-25T09:02:36;11.50;99.90
23685;DHT22;12020;51.384;6.908;2023-04-25T09:05:03;11.40;99.90
23685;DHT22;12020;51.384;6.908;2023-04-25T09:07:32;11.20;99.90
23685;DHT22;12020;51.384;6.908;2023-04-25T09:09:58;11.00;99.90
23685;DHT22;12020;51.384;6.908;2023-04-25T09:12:29;11.00;99.90
23685;DHT22;12020;51.384;6.908;2023-04-25T09:15:09;11.10;99.90
23685;DHT22;12020;51.384;6.908;2023-04-25T09:17:35;11.20;99.90
23685;DHT22;12020;51.384;6.908;2023-04-25T09:20:10;11.20;99.90
23685;DHT22;12020;51.384;6.908;2023-04-25T09:22:37;11.00;99.90
23685;DHT22;12020;51.384;6.908;2023-04-25T09:25:11;10.80;99.90
23685;DHT22;12020;51.384;6.908;2023-04-25T09:27:52;10.70;99.90
23685;DHT22;12020;51.384;6.908;2023-04-25T09:30:18;10.80;99.90
23685;DHT22;12020;51.384;6.908;2023-04-25T09:32:56;11.10;99.90
23685;DHT22;12020;51.384;6.908;2023-04-25T09:35:24;11.50;99.90
23685;DHT22;12020;51.384;6.908;2023-04-25T09:37:53;11.70;99.90
23685;DHT22;12020;51.384;6.908;2023-04-25T09:40:28;12.00;99.90
23685;DHT22;12020;51.384;6.908;2023-04-25T09:42:56;12.20;99.90
23685;DHT22;12020;51.384;6.908;2023-04-25T09:45:23;12.30;99.90
23685;DHT22;12020;51.384;6.908;2023-04-25T09:47:49;12.50;99.90
23685;DHT22;12020;51.384;6.908;2023-04-25T09:50:17;12.50;99.90
23685;DHT22;12020;51.384;6.908;2023-04-25T09:53:03;12.40;99.90
23685;DHT22;12020;51.384;6.908;2023-04-25T09:55:29;12.10;99.90
23685;DHT22;12020;51.384;6.908;2023-04-25T09:58:00;11.90;99.90
23685;DHT22;12020;51.384;6.908;2023-04-25T10:00:30;11.90;99.90
23685;DHT22;12020;51.384;6.908;2023-04-25T10:02:57;11.80;99.90
23685;DHT22;12020;51.384;6.908;2023-04-25T10:05:25;11.60;99.90
23685;DHT22;12020;51.384;6.908;2023-04-25T10:07:52;11.60;99.90
23685;DHT22;12020;51.384;6.908;2023-04-25T10:10:18;11.70;99.90
23685;DHT22;12020;51.384;6.908;2023-04-25T10:12:45;11.90;99.90
23685;DHT22;12020;51.384;6.908;2023-04-25T10:15:12;11.90;99.90
23685;DHT22;12020;51.384;6.908;2023-04-25T10:17:39;11.80;99.90
23685;DHT22;12020;51.384;6.908;2023-04-25T10:20:06;11.90;99.90
23685;DHT22;12020;51.384;6.908;2023-04-25T10:22:39;11.90;99.90
23685;DHT22;12020;51.384;6.908;2023-04-25T10:25:06;11.90;99.90
23685;DHT22;12020;51.384;6.908;2023-04-25T10:27:34;12.00;99.90
23685;DHT22;12020;51.384;6.908;2023-04-25T10:30:09;12.10;99.90
23685;DHT22;12020;51.384;6.908;2023-04-25T10:32:37;12.30;99.90
23685;DHT22;12020;51.384;6.908;2023-04-25T10:35:14;12.30;99.90
23685;DHT22;12020;51.384;6.908;2023-04-25T10:38:05;12.40;99.90
23685;DHT22;12020;51.384;6.908;2023-04-25T10:40:32;12.50;99.90
23685;DHT22;12020;51.384;6.908;2023-04-25T10:46:15;12.70;99.90
23685;DHT22;12020;51.384;6.908;2023-04-25T10:48:47;12.70;99.90
23685;DHT22;12020;51.384;6.908;2023-04-25T10:51:27;12.60;99.90
23685;DHT22;12020;51.384;6.908;2023-04-25T10:54:06;12.60;99.90
23685;DHT22;12020;51.384;6.908;2023-04-25T10:56:36;12.60;99.90
23685;DHT22;12020;51.384;6.908;2023-04-25T10:59:17;12.60;99.90
23685;DHT22;12020;51.384;6.908;2023-04-25T11:01:46;12.40;99.90
23685;DHT22;12020;51.384;6.908;2023-04-25T11:09:36;11.60;99.90
23685;DHT22;12020;51.384;6.908;2023-04-25T11:12:04;11.40;99.90
23685;DHT22;12020;51.384;6.908;2023-04-25T11:14:30;11.30;99.90
23685;DHT22;12020;51.384;6.908;2023-04-25T11:16:58;11.10;99.90
23685;DHT22;12020;51.384;6.908;2023-04-25T11:19:25;11.00;99.90
23685;DHT22;12020;51.384;6.908;2023-04-25T11:21:59;10.90;99.90
23685;DHT22;12020;51.384;6.908;2023-04-25T11:24:28;10.90;99.90
23685;DHT22;12020;51.384;6.908;2023-04-25T11:26:54;10.80;99.90
23685;DHT22;12020;51.384;6.908;2023-04-25T11:29:26;10.80;99.90
23685;DHT22;12020;51.384;6.908;2023-04-25T11:31:53;10.70;99.90
23685;DHT22;12020;51.384;6.908;2023-04-25T11:34:19;10.80;99.90
23685;DHT22;12020;51.384;6.908;2023-04-25T11:36:46;10.90;99.90
23685;DHT22;12020;51.384;6.908;2023-04-25T11:39:12;11.00;99.90
23685;DHT22;12020;51.384;6.908;2023-04-25T11:41:38;11.10;99.90
23685;DHT22;12020;51.384;6.908;2023-04-25T11:44:04;11.10;99.90
23685;DHT22;12020;51.384;6.908;2023-04-25T11:46:30;11.10;99.90
23685;DHT22;12020;51.384;6.908;2023-04-25T11:48:59;11.10;99.90
23685;DHT22;12020;51.384;6.908;2023-04-25T11:51:25;11.00;99.90
23685;DHT22;12020;51.384;6.908;2023-04-25T11:53:52;10.90;99.90
23685;DHT22;12020;51.384;6.908;2023-04-25T11:56:17;10.90;99.90
23685;DHT22;12020;51.384;6.908;2023-04-25T11:59:00;10.90;99.90
23685;DHT22;12020;51.384;6.908;2023-04-25T12:01:31;10.80;99.90
23685;DHT22;12020;51.384;6.908;2023-04-25T12:03:58;10.80;99.90
23685;DHT22;12020;51.384;6.908;2023-04-25T12:06:30;10.80;99.90
23685;DHT22;12020;51.384;6.908;2023-04-25T12:09:04;10.70;99.90
23685;DHT22;12020;51.384;6.908;2023-04-25T12:11:40;10.60;99.90
23685;DHT22;12020;51.384;6.908;2023-04-25T12:14:06;10.50;99.90
23685;DHT22;12020;51.384;6.908;2023-04-25T12:16:45;10.40;99.90
23685;DHT22;12020;51.384;6.908;2023-04-25T12:19:15;10.10;99.90
23685;DHT22;12020;51.384;6.908;2023-04-25T12:21:43;9.90;99.90
23685;DHT22;12020;51.384;6.908;2023-04-25T12:24:17;9.70;99.90
23685;DHT22;12020;51.384;6.908;2023-04-25T12:27:00;9.70;99.90
23685;DHT22;12020;51.384;6.908;2023-04-25T12:29:33;9.70;99.90
23685;DHT22;12020;51.384;6.908;2023-04-25T12:32:00;9.70;99.90
23685;DHT22;12020;51.384;6.908;2023-04-25T12:34:28;9.80;99.90
23685;DHT22;12020;51.384;6.908;2023-04-25T12:36:54;9.90;99.90
23685;DHT22;12020;51.384;6.908;2023-04-25T12:39:21;10.00;99.90
23685;DHT22;12020;51.384;6.908;2023-04-25T12:41:48;10.20;99.90
23685;DHT22;12020;51.384;6.908;2023-04-25T12:44:16;10.40;99.90
23685;DHT22;12020;51.384;6.908;2023-04-25T12:46:42;10.50;99.90
23685;DHT22;12020;51.384;6.908;2023-04-25T12:49:08;10.60;99.90
23685;DHT22;12020;51.384;6.908;2023-04-25T12:51:35;10.80;99.90
23685;DHT22;12020;51.384;6.908;2023-04-25T12:54:03;11.10;99.90
23685;DHT22;12020;51.384;6.908;2023-04-25T12:56:30;11.30;99.90
23685;DHT22;12020;51.384;6.908;2023-04-25T12:58:57;11.40;99.90
23685;DHT22;12020;51.384;6.908;2023-04-25T13:01:23;11.60;99.90
23685;DHT22;12020;51.384;6.908;2023-04-25T13:03:49;11.70;99.90
23685;DHT22;12020;51.384;6.908;2023-04-25T13:06:16;11.90;99.90
23685;DHT22;12020;51.384;6.908;2023-04-25T13:08:42;12.10;99.90
23685;DHT22;12020;51.384;6.908;2023-04-25T13:11:09;12.20;99.90
23685;DHT22;12020;51.384;6.908;2023-04-25T13:13:35;12.30;99.90
23685;DHT22;12020;51.384;6.908;2023-04-25T13:16:01;12.10;99.90
23685;DHT22;12020;51.384;6.908;2023-04-25T13:18:28;11.90;99.90
23685;DHT22;12020;51.384;6.908;2023-04-25T13:20:54;11.70;99.90
23685;DHT22;12020;51.384;6.908;2023-04-25T13:23:20;11.50;99.90
23685;DHT22;12020;51.384;6.908;2023-04-25T13:25:47;11.00;99.90
23685;DHT22;12020;51.384;6.908;2023-04-25T13:28:14;10.60;99.90
23685;DHT22;12020;51.384;6.908;2023-04-25T13:30:40;10.40;99.90
23685;DHT22;12020;51.384;6.908;2023-04-25T13:33:06;10.30;99.90
23685;DHT22;12020;51.384;6.908;2023-04-25T13:35:34;10.30;99.90
23685;DHT22;12020;51.384;6.908;2023-04-25T13:38:00;10.30;99.90
23685;DHT22;12020;51.384;6.908;2023-04-25T13:40:26;10.30;99.90
23685;DHT22;12020;51.384;6.908;2023-04-25T13:42:53;10.30;99.90
23685;DHT22;12020;51.384;6.908;2023-04-25T13:45:20;10.30;99.90
23685;DHT22;12020;51.384;6.908;2023-04-25T13:47:46;10.30;99.90
23685;DHT22;12020;51.384;6.908;2023-04-25T13:50:13;10.40;99.90
23685;DHT22;12020;51.384;6.908;2023-04-25T13:52:39;10.50;99.90
23685;DHT22;12020;51.384;6.908;2023-04-25T13:55:06;10.70;99.90
23685;DHT22;12020;51.384;6.908;2023-04-25T13:57:35;10.80;99.90
23685;DHT22;12020;51.384;6.908;2023-04-25T14:00:03;11.00;99.90
23685;DHT22;12020;51.384;6.908;2023-04-25T14:02:36;11.00;99.90
23685;DHT22;12020;51.384;6.908;2023-04-25T14:05:07;11.00;99.90
23685;DHT22;12020;51.384;6.908;2023-04-25T14:07:34;11.10;99.90
23685;DHT22;12020;51.384;6.908;2023-04-25T14:10:00;11.00;99.90
23685;DHT22;12020;51.384;6.908;2023-04-25T14:12:27;10.90;99.90
23685;DHT22;12020;51.384;6.908;2023-04-25T14:14:53;10.80;99.90
23685;DHT22;12020;51.384;6.908;2023-04-25T14:17:19;10.70;99.90
23685;DHT22;12020;51.384;6.908;2023-04-25T14:19:45;10.70;99.90
23685;DHT22;12020;51.384;6.908;2023-04-25T14:22:11;10.70;99.90
23685;DHT22;12020;51.384;6.908;2023-04-25T14:24:37;10.90;99.90
23685;DHT22;12020;51.384;6.908;2023-04-25T14:27:03;11.20;99.90
23685;DHT22;12020;51.384;6.908;2023-04-25T14:29:30;11.30;99.90
23685;DHT22;12020;51.384;6.908;2023-04-25T14:31:56;11.40;99.90
23685;DHT22;12020;51.384;6.908;2023-04-25T14:34:26;11.40;99.90
23685;DHT22;12020;51.384;6.908;2023-04-25T14:36:52;11.50;99.90
23685;DHT22;12020;51.384;6.908;2023-04-25T14:39:18;11.40;99.90
23685;DHT22;12020;51.384;6.908;2023-04-25T14:41:45;11.30;99.90
23685;DHT22;12020;51.384;6.908;2023-04-25T14:44:11;11.20;99.90
23685;DHT22;12020;51.384;6.908;2023-04-25T14:46:37;11.10;99.90
23685;DHT22;12020;51.384;6.908;2023-04-25T14:49:03;11.00;99.90
23685;DHT22;12020;51.384;6.908;2023-04-25T14:51:29;10.90;99.90
23685;DHT22;12020;51.384;6.908;2023-04-25T14:53:56;10.90;99.90
23685;DHT22;12020;51.384;6.908;2023-04-25T14:56:23;10.90;99.90
23685;DHT22;12020;51.384;6.908;2023-04-25T14:58:49;10.80;99.90
23685;DHT22;12020;51.384;6.908;2023-04-25T15:01:15;10.70;99.90
23685;DHT22;12020;51.384;6.908;2023-04-25T15:03:41;10.70;99.90
23685;DHT22;12020;51.384;6.908;2023-04-25T15:06:07;10.60;99.90
23685;DHT22;12020;51.384;6.908;2023-04-25T15:08:33;10.50;99.90
23685;DHT22;12020;51.384;6.908;2023-04-25T15:10:59;10.40;99.90
23685;DHT22;12020;51.384;6.908;2023-04-25T15:13:25;10.40;99.90
23685;DHT22;12020;51.384;6.908;2023-04-25T15:15:52;10.40;99.90
23685;DHT22;12020;51.384;6.908;2023-04-25T15:18:22;10.50;99.90
23685;DHT22;12020;51.384;6.908;2023-04-25T15:20:50;10.50;99.90
23685;DHT22;12020;51.384;6.908;2023-04-25T15:23:17;10.60;99.90
23685;DHT22;12020;51.384;6.908;2023-04-25T15:25:45;10.70;99.90
23685;DHT22;12020;51.384;6.908;2023-04-25T15:28:11;10.80;99.90
23685;DHT22;12020;51.384;6.908;2023-04-25T15:30:40;10.80;99.90
23685;DHT22;12020;51.384;6.908;2023-04-25T15:33:05;10.80;99.90
23685;DHT22;12020;51.384;6.908;2023-04-25T15:35:31;10.80;99.90
23685;DHT22;12020;51.384;6.908;2023-04-25T15:37:57;10.70;99.90
23685;DHT22;12020;51.384;6.908;2023-04-25T15:40:22;10.60;99.90
23685;DHT22;12020;51.384;6.908;2023-04-25T15:42:50;10.50;99.90
23685;DHT22;12020;51.384;6.908;2023-04-25T15:45:17;10.40;99.90
23685;DHT22;12020;51.384;6.908;2023-04-25T15:47:52;10.30;99.90